createdAt,value
2023-05-19T00:01:24.903Z,4.32
2023-05-19T00:03:57.674Z,3.78
2023-05-19T00:06:26.757Z,3.70
2023-05-19T00:08:58.813Z,4.00
2023-05-19T00:11:27.623Z,3.90
2023-05-19T00:13:56.423Z,4.30
2023-05-19T00:16:25.465Z,4.40
2023-05-19T00:18:54.731Z,4.60
2023-05-19T00:21:22.374Z,4.25
2023-05-19T00:23:50.098Z,4.10
2023-05-19T00:26:17.740Z,3.90
2023-05-19T00:28:55.624Z,3.70
2023-05-19T00:31:23.425Z,4.40
2023-05-19T00:33:52.050Z,4.03
2023-05-19T00:36:21.061Z,3.63
2023-05-19T00:38:48.618Z,4.43
2023-05-19T00:41:16.377Z,4.18
2023-05-19T00:43:43.971Z,3.97
2023-05-19T00:46:11.828Z,4.30
2023-05-19T00:48:39.609Z,4.22
2023-05-19T00:51:07.482Z,4.80
2023-05-19T00:53:36.618Z,4.22
2023-05-19T00:56:04.710Z,4.50
2023-05-19T00:58:33.050Z,4.22
2023-05-19T01:01:03.468Z,3.92
2023-05-19T01:03:32.762Z,4.10
2023-05-19T01:06:04.810Z,4.20
2023-05-19T01:08:32.973Z,4.43
2023-05-19T01:11:02.367Z,4.47
2023-05-19T01:13:30.943Z,4.47
2023-05-19T01:16:06.654Z,4.18
2023-05-19T01:18:44.679Z,4.20
2023-05-19T01:21:51.489Z,4.37
2023-05-19T01:24:54.870Z,4.32
2023-05-19T01:27:46.841Z,4.43
2023-05-19T01:30:27.810Z,4.60
2023-05-19T01:32:59.211Z,3.95
2023-05-19T01:35:27.800Z,4.10
2023-05-19T01:37:57.392Z,5.07
2023-05-19T01:40:27.180Z,4.47
2023-05-19T01:42:57.840Z,4.45
2023-05-19T01:45:30.018Z,5.00
2023-05-19T01:48:00.228Z,4.37
2023-05-19T01:50:28.192Z,4.30
2023-05-19T01:52:56.212Z,4.60
2023-05-19T01:55:24.072Z,4.40
2023-05-19T01:58:01.511Z,4.85
2023-05-19T02:00:44.355Z,4.47
2023-05-19T02:03:24.146Z,4.30
2023-05-19T02:05:59.629Z,4.80
2023-05-19T02:08:31.639Z,4.50
2023-05-19T02:11:03.883Z,4.60
2023-05-19T02:13:37.679Z,4.57
2023-05-19T02:16:08.083Z,4.53
2023-05-19T02:18:36.202Z,4.63
2023-05-19T02:21:03.824Z,4.45
2023-05-19T02:23:31.926Z,4.95
2023-05-19T02:25:59.577Z,4.87
2023-05-19T02:28:28.400Z,4.78
2023-05-19T02:30:56.088Z,5.40
2023-05-19T02:33:27.439Z,5.50
2023-05-19T02:35:55.068Z,5.18
2023-05-19T02:38:22.710Z,4.93
2023-05-19T02:40:52.529Z,5.03
2023-05-19T02:43:20.309Z,4.88
2023-05-19T02:45:47.862Z,4.72
2023-05-19T02:48:15.480Z,5.15
2023-05-19T02:50:44.436Z,5.20
2023-05-19T02:53:12.020Z,4.90
2023-05-19T02:55:39.616Z,5.60
2023-05-19T02:58:07.398Z,5.30
2023-05-19T03:00:35.081Z,5.30
2023-05-19T03:03:03.169Z,5.20
2023-05-19T03:05:31.093Z,5.43
2023-05-19T03:08:00.114Z,5.20
2023-05-19T03:10:27.936Z,5.28
2023-05-19T03:12:55.509Z,5.32
2023-05-19T03:15:23.479Z,5.30
2023-05-19T03:17:51.923Z,5.40
2023-05-19T03:20:19.851Z,5.32
2023-05-19T03:22:47.567Z,5.63
2023-05-19T03:25:17.016Z,5.32
2023-05-19T03:27:44.679Z,5.40
2023-05-19T03:30:13.561Z,5.68
2023-05-19T03:32:54.257Z,5.80
2023-05-19T03:35:22.220Z,5.93
2023-05-19T03:37:50.111Z,5.75
2023-05-19T03:40:19.665Z,5.70
2023-05-19T03:42:48.779Z,5.10
2023-05-19T03:45:17.319Z,6.05
2023-05-19T03:47:48.670Z,5.28
2023-05-19T03:50:31.634Z,5.60
2023-05-19T03:53:12.860Z,5.50
2023-05-19T03:55:44.348Z,4.95
2023-05-19T03:58:14.527Z,5.30
2023-05-19T04:00:42.163Z,5.15
2023-05-19T04:03:09.847Z,5.53
2023-05-19T04:05:37.579Z,5.20
2023-05-19T04:08:05.549Z,5.20
2023-05-19T04:10:33.225Z,4.95
2023-05-19T04:13:02.241Z,4.88
2023-05-19T04:15:30.133Z,5.70
2023-05-19T04:17:57.917Z,5.10
2023-05-19T04:20:25.516Z,5.32
2023-05-19T04:22:53.102Z,4.65
2023-05-19T04:25:20.995Z,5.22
2023-05-19T04:27:49.409Z,4.90
2023-05-19T04:30:22.326Z,5.10
2023-05-19T04:32:50.928Z,4.93
2023-05-19T04:35:19.321Z,5.05
2023-05-19T04:37:48.369Z,4.47
2023-05-19T04:40:21.046Z,4.95
2023-05-19T04:42:49.691Z,4.73
2023-05-19T04:45:19.122Z,5.07
2023-05-19T04:47:50.225Z,5.38
2023-05-19T04:50:17.847Z,4.90
2023-05-19T04:52:46.404Z,4.72
2023-05-19T04:55:15.334Z,4.70
2023-05-19T04:57:43.383Z,4.38
2023-05-19T05:00:14.292Z,4.72
2023-05-19T05:02:58.436Z,4.93
2023-05-19T05:05:28.480Z,5.25
2023-05-19T05:07:56.402Z,4.70
2023-05-19T05:10:26.316Z,5.75
2023-05-19T05:12:55.465Z,4.70
2023-05-19T05:15:24.183Z,4.82
2023-05-19T05:17:52.774Z,4.93
2023-05-19T05:20:24.018Z,5.00
2023-05-19T05:22:52.358Z,4.72
2023-05-19T05:25:21.839Z,4.53
2023-05-19T05:27:50.662Z,4.63
2023-05-19T05:30:18.987Z,4.88
2023-05-19T05:32:48.153Z,5.10
2023-05-19T05:35:39.214Z,4.75
2023-05-19T05:38:08.651Z,4.50
2023-05-19T05:40:37.759Z,4.25
2023-05-19T05:43:06.222Z,5.10
2023-05-19T05:45:38.343Z,4.87
2023-05-19T05:48:07.552Z,4.88
2023-05-19T05:50:35.955Z,5.32
2023-05-19T05:53:07.454Z,4.47
2023-05-19T05:55:38.156Z,4.93
2023-05-19T05:58:10.976Z,4.47
2023-05-19T06:00:38.913Z,4.40
2023-05-19T06:03:06.699Z,4.30
2023-05-19T06:05:34.461Z,4.60
2023-05-19T06:08:02.630Z,4.00
2023-05-19T06:10:32.561Z,4.30
2023-05-19T06:13:00.440Z,4.95
2023-05-19T06:15:28.292Z,4.93
2023-05-19T06:18:10.496Z,4.38
2023-05-19T06:20:38.106Z,4.75
2023-05-19T06:23:05.706Z,5.00
2023-05-19T06:25:34.852Z,4.13
2023-05-19T06:28:03.464Z,4.05
2023-05-19T06:30:31.451Z,4.30
2023-05-19T06:33:11.852Z,4.05
2023-05-19T06:35:39.510Z,4.17
2023-05-19T06:38:07.234Z,3.95
2023-05-19T06:40:37.135Z,3.90
2023-05-19T06:43:04.861Z,3.70
2023-05-19T06:45:52.418Z,3.85
2023-05-19T06:48:20.002Z,3.83
2023-05-19T06:50:48.698Z,4.00
2023-05-19T06:53:18.249Z,4.00
2023-05-19T06:55:58.768Z,3.95
2023-05-19T06:58:29.359Z,4.20
2023-05-19T07:00:57.777Z,3.73
2023-05-19T07:03:30.983Z,3.47
2023-05-19T07:05:59.843Z,3.80
2023-05-19T07:08:29.080Z,3.40
2023-05-19T07:10:59.349Z,3.90
2023-05-19T07:13:27.665Z,3.33
2023-05-19T07:15:56.592Z,3.38
2023-05-19T07:18:25.397Z,3.35
2023-05-19T07:20:53.670Z,3.85
2023-05-19T07:23:21.764Z,3.15
2023-05-19T07:25:49.330Z,3.60
2023-05-19T07:28:18.293Z,3.53
2023-05-19T07:30:45.851Z,3.63
2023-05-19T07:33:13.644Z,3.40
2023-05-19T07:35:41.308Z,3.20
2023-05-19T07:38:08.929Z,3.20
2023-05-19T07:40:36.465Z,3.40
2023-05-19T07:43:04.037Z,3.08
2023-05-19T07:45:33.049Z,2.83
2023-05-19T07:48:00.766Z,3.40
2023-05-19T07:50:28.506Z,2.80
2023-05-19T07:52:56.433Z,3.15
2023-05-19T07:55:24.212Z,2.92
2023-05-19T07:57:51.794Z,2.88
2023-05-19T08:00:19.690Z,2.90
2023-05-19T08:02:48.674Z,2.97
2023-05-19T08:05:16.301Z,2.80
2023-05-19T08:07:43.927Z,2.90
2023-05-19T08:10:11.637Z,2.80
2023-05-19T08:12:39.249Z,3.30
2023-05-19T08:15:07.911Z,2.80
2023-05-19T08:17:35.779Z,2.70
2023-05-19T08:20:06.228Z,2.72
2023-05-19T08:22:33.781Z,3.00
2023-05-19T08:25:01.389Z,2.70
2023-05-19T08:27:29.015Z,2.60
2023-05-19T08:29:57.243Z,2.80
2023-05-19T08:32:25.477Z,2.63
2023-05-19T08:34:53.337Z,2.83
2023-05-19T08:37:22.373Z,2.70
2023-05-19T08:39:49.968Z,3.20
2023-05-19T08:42:17.612Z,2.90
2023-05-19T08:44:45.268Z,3.10
2023-05-19T08:47:13.844Z,2.78
2023-05-19T08:49:46.205Z,2.80
2023-05-19T08:52:26.185Z,2.97
2023-05-19T08:55:00.881Z,2.70
2023-05-19T08:57:29.353Z,2.80
2023-05-19T08:59:57.993Z,2.67
2023-05-19T09:02:26.203Z,3.03
2023-05-19T09:04:54.688Z,3.20
2023-05-19T09:07:25.576Z,3.22
2023-05-19T09:09:53.205Z,3.13
2023-05-19T09:12:21.583Z,3.00
2023-05-19T09:14:49.428Z,3.10
2023-05-19T09:17:18.569Z,3.33
2023-05-19T09:19:48.074Z,3.33
2023-05-19T09:22:19.041Z,3.20
2023-05-19T09:24:48.078Z,3.20
2023-05-19T09:27:22.064Z,2.92
2023-05-19T09:29:49.698Z,3.27
2023-05-19T09:32:26.025Z,3.03
2023-05-19T09:34:54.512Z,3.00
2023-05-19T09:37:24.034Z,3.30
2023-05-19T09:39:53.122Z,3.42
2023-05-19T09:42:26.646Z,3.10
2023-05-19T09:45:01.518Z,3.50
2023-05-19T09:47:29.284Z,3.65
2023-05-19T09:49:58.510Z,3.38
2023-05-19T09:52:27.325Z,3.30
2023-05-19T09:54:57.551Z,2.83
2023-05-19T09:57:26.939Z,3.33
2023-05-19T09:59:56.817Z,3.35
2023-05-19T10:02:26.930Z,3.15
2023-05-19T10:04:56.105Z,2.83
2023-05-19T10:07:25.049Z,2.60
2023-05-19T10:09:56.591Z,2.83
2023-05-19T10:12:27.456Z,2.60
2023-05-19T10:14:55.862Z,2.65
2023-05-19T10:17:24.805Z,2.42
2023-05-19T10:19:54.675Z,2.80
2023-05-19T10:22:22.514Z,2.95
2023-05-19T10:24:50.093Z,3.10
2023-05-19T10:27:18.914Z,2.78
2023-05-19T10:29:50.701Z,2.80
2023-05-19T10:32:23.900Z,2.60
2023-05-19T10:35:25.012Z,2.50
2023-05-19T10:37:59.978Z,2.40
2023-05-19T10:40:29.643Z,2.30
2023-05-19T10:43:21.933Z,2.30
2023-05-19T10:45:54.603Z,2.60
2023-05-19T10:48:22.939Z,2.20
2023-05-19T10:50:54.399Z,2.35
2023-05-19T10:53:21.999Z,2.22
2023-05-19T10:55:55.929Z,2.53
2023-05-19T10:58:39.118Z,2.40
2023-05-19T11:01:15.186Z,2.40
2023-05-19T11:03:48.018Z,2.40
2023-05-19T11:06:25.632Z,2.50
2023-05-19T11:09:01.925Z,2.30
2023-05-19T11:11:48.099Z,2.03
2023-05-19T11:14:17.678Z,2.30
2023-05-19T11:16:49.311Z,2.38
2023-05-19T11:19:21.395Z,2.40
2023-05-19T11:21:50.415Z,2.25
2023-05-19T11:24:37.684Z,2.40
2023-05-19T11:27:22.236Z,2.20
2023-05-19T11:29:51.148Z,2.33
2023-05-19T11:32:21.706Z,2.00
2023-05-19T11:34:50.359Z,2.20
2023-05-19T11:37:17.985Z,2.03
2023-05-19T11:39:47.516Z,2.30
2023-05-19T11:42:15.157Z,1.80
2023-05-19T11:44:46.037Z,2.00
2023-05-19T11:47:14.138Z,2.35
2023-05-19T11:49:45.913Z,2.10
2023-05-19T11:52:13.782Z,2.53
2023-05-19T11:54:42.122Z,1.95
2023-05-19T11:57:10.475Z,2.15
2023-05-19T11:59:40.590Z,2.20
2023-05-19T12:02:17.772Z,2.27
2023-05-19T12:04:46.982Z,1.95
2023-05-19T12:07:17.534Z,2.00
2023-05-19T12:09:46.457Z,2.00
2023-05-19T12:12:15.797Z,1.83
2023-05-19T12:14:43.718Z,1.90
2023-05-19T12:17:13.084Z,1.90
2023-05-19T12:19:42.152Z,2.13
2023-05-19T12:22:11.678Z,1.88
2023-05-19T12:24:40.623Z,2.20
2023-05-19T12:27:12.350Z,1.90
2023-05-19T12:29:40.069Z,2.10
2023-05-19T12:32:09.173Z,2.00
2023-05-19T12:34:38.370Z,1.92
2023-05-19T12:37:06.386Z,2.35
2023-05-19T12:39:35.572Z,1.90
2023-05-19T12:42:03.978Z,1.92
2023-05-19T12:44:32.091Z,1.80
2023-05-19T12:47:00.545Z,1.83
2023-05-19T12:49:28.152Z,1.92
2023-05-19T12:51:55.786Z,1.87
2023-05-19T12:54:23.520Z,2.00
2023-05-19T12:56:53.857Z,1.80
2023-05-19T12:59:37.323Z,1.55
2023-05-19T13:02:06.372Z,1.70
2023-05-19T13:04:34.149Z,1.87
2023-05-19T13:07:01.826Z,1.98
2023-05-19T13:09:29.372Z,1.60
2023-05-19T13:11:58.655Z,1.70
2023-05-19T13:14:26.289Z,1.75
2023-05-19T13:16:53.954Z,2.07
2023-05-19T13:19:25.270Z,1.73
2023-05-19T13:21:53.462Z,1.80
2023-05-19T13:24:21.250Z,1.90
2023-05-19T13:26:48.976Z,1.95
2023-05-19T13:29:17.912Z,1.90
2023-05-19T13:31:46.256Z,1.95
2023-05-19T13:34:13.986Z,1.95
2023-05-19T13:36:42.794Z,1.70
2023-05-19T13:39:10.491Z,1.63
2023-05-19T13:41:38.333Z,1.83
2023-05-19T13:44:06.126Z,1.70
2023-05-19T13:46:44.764Z,1.88
2023-05-19T13:49:14.095Z,1.70
2023-05-19T13:51:43.639Z,2.00
2023-05-19T13:54:11.425Z,1.87
2023-05-19T13:56:39.082Z,2.10
2023-05-19T13:59:06.671Z,1.80
2023-05-19T14:01:35.688Z,1.70
2023-05-19T14:04:03.426Z,2.33
2023-05-19T14:06:31.064Z,1.87
2023-05-19T14:08:58.656Z,1.83
2023-05-19T14:11:26.223Z,1.77
2023-05-19T14:13:53.818Z,1.85
2023-05-19T14:16:22.203Z,1.95
2023-05-19T14:18:51.301Z,1.90
2023-05-19T14:21:19.232Z,1.90
2023-05-19T14:23:46.858Z,1.80
2023-05-19T14:26:14.429Z,1.90
2023-05-19T14:28:42.053Z,1.80
2023-05-19T14:31:12.201Z,1.90
2023-05-19T14:33:39.946Z,1.95
2023-05-19T14:36:09.397Z,2.17
2023-05-19T14:38:37.612Z,2.00
2023-05-19T14:41:05.537Z,1.95
2023-05-19T14:43:33.201Z,2.00
2023-05-19T14:46:00.917Z,1.70
2023-05-19T14:48:28.509Z,2.15
2023-05-19T14:50:56.061Z,2.00
2023-05-19T14:53:25.000Z,1.50
2023-05-19T14:55:52.607Z,1.60
2023-05-19T14:58:29.037Z,1.70
2023-05-19T15:00:58.651Z,1.50
2023-05-19T15:03:26.312Z,1.85
2023-05-19T15:05:53.896Z,2.00
2023-05-19T15:08:21.470Z,1.77
2023-05-19T15:10:51.344Z,1.70
2023-05-19T15:13:21.281Z,1.63
2023-05-19T15:15:48.827Z,1.88
2023-05-19T15:18:18.567Z,1.85
2023-05-19T15:20:46.589Z,1.90
2023-05-19T15:23:14.167Z,1.90
2023-05-19T15:25:41.805Z,1.70
2023-05-19T15:28:10.702Z,1.80
2023-05-19T15:30:38.498Z,2.25
2023-05-19T15:33:06.339Z,1.80
2023-05-19T15:35:33.959Z,2.10
2023-05-19T15:38:05.974Z,1.80
2023-05-19T15:40:34.120Z,1.80
2023-05-19T15:43:02.117Z,1.80
2023-05-19T15:45:31.162Z,1.70
2023-05-19T15:47:58.700Z,1.67
2023-05-19T15:50:26.642Z,1.90
2023-05-19T15:52:54.204Z,1.80
2023-05-19T15:55:22.083Z,1.70
2023-05-19T15:57:49.624Z,1.47
2023-05-19T16:00:17.355Z,1.70
2023-05-19T16:02:46.501Z,1.90
2023-05-19T16:05:14.161Z,1.75
2023-05-19T16:07:42.698Z,1.67
2023-05-19T16:10:10.755Z,1.70
2023-05-19T16:12:38.486Z,1.98
2023-05-19T16:15:07.040Z,1.90
2023-05-19T16:17:34.988Z,2.00
2023-05-19T16:20:04.355Z,1.80
2023-05-19T16:22:31.954Z,2.00
2023-05-19T16:24:59.520Z,1.77
2023-05-19T16:27:27.244Z,1.88
2023-05-19T16:29:56.135Z,1.75
2023-05-19T16:32:23.804Z,1.83
2023-05-19T16:34:51.405Z,1.60
2023-05-19T16:37:20.255Z,1.63
2023-05-19T16:39:48.324Z,1.95
2023-05-19T16:42:15.932Z,1.77
2023-05-19T16:44:43.540Z,2.20
2023-05-19T16:47:11.118Z,1.83
2023-05-19T16:49:40.377Z,1.88
2023-05-19T16:52:07.998Z,1.90
2023-05-19T16:54:37.038Z,1.92
2023-05-19T16:57:04.876Z,1.70
2023-05-19T16:59:32.499Z,1.90
2023-05-19T17:02:00.129Z,1.70
2023-05-19T17:04:30.007Z,1.67
2023-05-19T17:06:58.479Z,1.80
2023-05-19T17:09:26.340Z,1.90
2023-05-19T17:11:55.620Z,1.70
2023-05-19T17:14:23.369Z,1.60
2023-05-19T17:16:52.341Z,1.73
2023-05-19T17:19:20.041Z,1.90
2023-05-19T17:21:47.682Z,1.58
2023-05-19T17:24:15.547Z,1.77
2023-05-19T17:26:43.108Z,1.88
2023-05-19T17:29:12.450Z,1.60
2023-05-19T17:31:40.188Z,1.70
2023-05-19T17:34:07.947Z,1.73
2023-05-19T17:36:35.559Z,2.20
2023-05-19T17:39:03.531Z,2.42
2023-05-19T17:41:31.212Z,12.27
2023-05-19T17:43:58.762Z,14.30
2023-05-19T17:46:30.137Z,28.88
2023-05-19T17:48:57.831Z,8.33
2023-05-19T17:51:25.853Z,2.25
2023-05-19T17:53:53.955Z,1.70
2023-05-19T17:56:22.355Z,1.77
2023-05-19T17:58:50.523Z,1.90
2023-05-19T18:01:20.353Z,1.90
2023-05-19T18:03:50.117Z,1.83
2023-05-19T18:06:18.758Z,1.50
2023-05-19T18:08:50.414Z,1.50
2023-05-19T18:11:18.660Z,1.58
2023-05-19T18:13:46.254Z,1.50
2023-05-19T18:16:13.886Z,1.88
2023-05-19T18:18:43.481Z,1.70
2023-05-19T18:21:14.244Z,1.50
2023-05-19T18:23:42.188Z,1.60
2023-05-19T18:26:09.776Z,1.83
2023-05-19T18:28:37.319Z,1.60
2023-05-19T18:31:07.511Z,1.50
2023-05-19T18:33:35.191Z,1.65
2023-05-19T18:36:02.816Z,1.60
2023-05-19T18:38:31.744Z,1.73
2023-05-19T18:41:00.723Z,1.60
2023-05-19T18:43:29.993Z,1.50
2023-05-19T18:45:58.235Z,1.70
2023-05-19T18:48:26.884Z,1.67
2023-05-19T18:50:54.566Z,1.50
2023-05-19T18:53:22.689Z,1.60
2023-05-19T18:55:51.678Z,1.60
2023-05-19T18:58:19.573Z,1.40
2023-05-19T19:00:47.371Z,1.60
2023-05-19T19:03:15.016Z,1.93
2023-05-19T19:05:42.739Z,1.67
2023-05-19T19:08:10.492Z,1.40
2023-05-19T19:10:40.416Z,1.70
2023-05-19T19:13:09.350Z,1.70
2023-05-19T19:15:39.630Z,1.60
2023-05-19T19:18:08.196Z,1.75
2023-05-19T19:20:36.136Z,1.48
2023-05-19T19:23:06.335Z,1.80
2023-05-19T19:25:34.007Z,1.80
2023-05-19T19:28:02.305Z,1.60
2023-05-19T19:30:31.609Z,1.60
2023-05-19T19:33:00.018Z,1.58
2023-05-19T19:35:27.622Z,1.77
2023-05-19T19:37:55.213Z,1.40
2023-05-19T19:40:23.011Z,1.77
2023-05-19T19:42:50.725Z,1.63
2023-05-19T19:45:19.399Z,1.83
2023-05-19T19:47:48.397Z,1.50
2023-05-19T19:50:16.426Z,1.70
2023-05-19T19:52:44.158Z,1.80
2023-05-19T19:55:11.840Z,2.67
2023-05-19T19:57:39.442Z,1.90
2023-05-19T20:00:09.027Z,1.80
2023-05-19T20:02:45.538Z,1.80
2023-05-19T20:05:24.625Z,1.60
2023-05-19T20:07:52.250Z,1.80
2023-05-19T20:10:20.039Z,1.70
2023-05-19T20:12:48.076Z,1.60
2023-05-19T20:15:16.262Z,1.60
2023-05-19T20:17:43.895Z,1.70
2023-05-19T20:20:12.827Z,1.50
2023-05-19T20:22:41.828Z,1.60
2023-05-19T20:25:10.897Z,1.48
2023-05-19T20:27:38.523Z,1.67
2023-05-19T20:30:07.303Z,1.60
2023-05-19T20:32:35.028Z,1.70
2023-05-19T20:35:02.592Z,1.88
2023-05-19T20:37:30.472Z,1.80
2023-05-19T20:39:59.469Z,1.70
2023-05-19T20:42:27.050Z,1.70
2023-05-19T20:44:54.795Z,2.00
2023-05-19T20:47:22.413Z,2.25
2023-05-19T20:49:49.972Z,1.55
2023-05-19T20:52:18.239Z,1.90
2023-05-19T20:54:46.244Z,1.70
2023-05-19T20:57:15.456Z,1.83
2023-05-19T20:59:43.050Z,1.50
2023-05-19T21:02:11.604Z,1.70
2023-05-19T21:04:39.695Z,1.40
2023-05-19T21:07:07.485Z,1.73
2023-05-19T21:09:35.101Z,1.60
2023-05-19T21:12:02.926Z,1.90
2023-05-19T21:14:31.819Z,1.80
2023-05-19T21:16:59.491Z,1.70
2023-05-19T21:19:27.379Z,1.93
2023-05-19T21:21:54.998Z,1.95
2023-05-19T21:24:22.601Z,1.90
2023-05-19T21:26:51.302Z,2.00
2023-05-19T21:29:19.056Z,1.70
2023-05-19T21:31:47.948Z,1.80
2023-05-19T21:34:15.597Z,1.80
2023-05-19T21:36:43.186Z,1.70
2023-05-19T21:39:10.986Z,1.83
2023-05-19T21:41:38.707Z,1.83
2023-05-19T21:44:06.285Z,1.90
2023-05-19T21:46:33.988Z,1.67
2023-05-19T21:49:02.965Z,2.08
2023-05-19T21:51:31.502Z,1.70
2023-05-19T21:53:59.459Z,1.90
2023-05-19T21:56:27.430Z,1.80
2023-05-19T21:58:55.066Z,1.70
2023-05-19T22:01:22.820Z,1.60
2023-05-19T22:03:50.558Z,1.80
2023-05-19T22:06:19.625Z,1.60
2023-05-19T22:08:47.168Z,1.60
2023-05-19T22:11:17.897Z,1.92
2023-05-19T22:13:45.762Z,1.70
2023-05-19T22:16:13.320Z,1.80
2023-05-19T22:18:41.229Z,2.15
2023-05-19T22:21:09.052Z,1.90
2023-05-19T22:23:37.971Z,2.08
2023-05-19T22:26:05.938Z,1.90
2023-05-19T22:28:33.600Z,1.90
2023-05-19T22:31:01.218Z,1.98
2023-05-19T22:33:28.820Z,1.70
2023-05-19T22:35:56.545Z,1.75
2023-05-19T22:38:24.119Z,1.77
2023-05-19T22:40:53.208Z,1.70
2023-05-19T22:43:20.743Z,1.55
2023-05-19T22:45:49.252Z,1.73
2023-05-19T22:48:17.164Z,1.60
2023-05-19T22:50:44.819Z,1.70
2023-05-19T22:53:12.404Z,1.90
2023-05-19T22:55:40.050Z,2.03
2023-05-19T22:58:08.930Z,2.00
2023-05-19T23:00:36.501Z,2.00
2023-05-19T23:03:04.169Z,1.90
2023-05-19T23:05:31.973Z,1.90
2023-05-19T23:07:59.685Z,2.10
2023-05-19T23:10:27.424Z,1.80
2023-05-19T23:12:55.113Z,2.22
2023-05-19T23:15:24.073Z,1.90
2023-05-19T23:17:51.761Z,1.70
2023-05-19T23:20:19.515Z,1.63
2023-05-19T23:22:47.068Z,1.47
2023-05-19T23:25:14.682Z,1.60
2023-05-19T23:27:42.288Z,1.70
2023-05-19T23:30:10.423Z,1.60
2023-05-19T23:32:40.797Z,1.60
2023-05-19T23:35:12.851Z,1.50
2023-05-19T23:37:40.691Z,1.60
2023-05-19T23:40:09.503Z,1.42
2023-05-19T23:42:37.497Z,1.60
2023-05-19T23:45:05.817Z,1.85
2023-05-19T23:47:33.559Z,1.67
2023-05-19T23:50:02.492Z,1.67
2023-05-19T23:52:30.183Z,1.60
2023-05-19T23:54:57.754Z,1.67
2023-05-19T23:57:25.617Z,1.70
2023-05-19T23:59:53.253Z,1.67
